MET1146 - Portland to Ontario

Boeing 737-200
711MT
2 hrs 00 mins
730 nm
Scheduled - M

Bid/PiRep Status

Bid was submitted on Dec 28 2016.

PiRep # 74542: Approved by Dave Nichols on January 1st, 2017 4:06 UTC

Departure

Departing from
Portland (PDX)
Departure gate
Scheduled Departure
GMT 1930
Local 1230
METAR KPDX 252353Z 10007KT 10SM -RA BKN038 OVC050 11/09 A2987 RMK AO2 SLP113 P0000 60007 T01110089 10122 20111 56026
TAF KPDX 252337Z 2600/2624 14007KT P6SM -RA BKN035 OVC050 FM260200 16011KT 5SM -RA BR BKN025 OVC040 FM260600 18009KT P6SM -SHRA SCT015 OVC025 FM260900 20014KT P6SM -RA SCT015 OVC025 FM261900 27010KT P6SM -SHRA OVC040

Arrival

Arriving at
Ontario (ONT)
Arrival gate
Scheduled Arrival
GMT 2130
Local 1430
METAR KONT 252353Z 24010KT 10SM FEW080 SCT180 OVC250 22/06 A2985 RMK AO2 SLP101 T02170056 10228 20183 58007
TAF KONT 252320Z 2600/2706 23011KT P6SM FEW050 SCT150 BKN250 FM260400 VRB05KT P6SM BKN250 FM262000 25011KT P6SM SCT250 FM270400 VRB05KT P6SM SCT250

Route Map

Planning Resources

LHV J5 EHF ZIGGY4
KPDX POWEL LKV HARTT PYRAM FMG TILTS SONNY TIOGA PINNI EHF KONT
KDPX BTG LKV HARTT PYRAM FMG TILTS SONNY TIOGA PINNI EHF ZIGGY KONT
RIVER6 BTG J189 AVE EHF ZIGGY4
KPDX DCT URBIA V165 LKV J5 EHF STAR KONT
Route:
OFP Layout:
Units:
Detailed Navlog:
ETOPS Planning:
Plan Stepclimbs:
Runway Analysis:
Include NOTAMS:
FIR NOTAMS:
Flight Maps:

Popularity

Hub Current Bids PiReps this month Total PiReps
KMCI 0 0 3
KLAX 0 0 2
KBOS 0 0 0